sensor_id;sensor_type;location;lat;lon;timestamp;P1;durP1;ratioP1;P2;durP2;ratioP2
10872;SDS011;34586;53.616;10.032;2023-11-18T00:01:44;7.67;;;6.83;;
10872;SDS011;34586;53.616;10.032;2023-11-18T00:04:10;7.70;;;6.93;;
10872;SDS011;34586;53.616;10.032;2023-11-18T00:06:44;8.07;;;6.53;;
10872;SDS011;34586;53.616;10.032;2023-11-18T00:09:13;7.43;;;6.57;;
10872;SDS011;34586;53.616;10.032;2023-11-18T00:11:39;7.63;;;6.83;;
10872;SDS011;34586;53.616;10.032;2023-11-18T00:14:06;7.33;;;6.63;;
10872;SDS011;34586;53.616;10.032;2023-11-18T00:16:32;7.23;;;6.53;;
10872;SDS011;34586;53.616;10.032;2023-11-18T00:18:59;7.73;;;7.03;;
10872;SDS011;34586;53.616;10.032;2023-11-18T00:21:25;8.27;;;6.40;;
10872;SDS011;34586;53.616;10.032;2023-11-18T00:23:51;7.87;;;6.97;;
10872;SDS011;34586;53.616;10.032;2023-11-18T00:26:16;9.77;;;7.00;;
10872;SDS011;34586;53.616;10.032;2023-11-18T00:28:42;8.17;;;6.97;;
10872;SDS011;34586;53.616;10.032;2023-11-18T00:31:07;7.67;;;6.87;;
10872;SDS011;34586;53.616;10.032;2023-11-18T00:33:33;7.00;;;6.30;;
10872;SDS011;34586;53.616;10.032;2023-11-18T00:35:58;7.83;;;7.00;;
10872;SDS011;34586;53.616;10.032;2023-11-18T00:38:25;8.03;;;7.10;;
10872;SDS011;34586;53.616;10.032;2023-11-18T00:40:51;7.90;;;6.53;;
10872;SDS011;34586;53.616;10.032;2023-11-18T00:43:17;7.37;;;6.13;;
10872;SDS011;34586;53.616;10.032;2023-11-18T00:45:42;7.20;;;6.50;;
10872;SDS011;34586;53.616;10.032;2023-11-18T00:48:08;7.33;;;6.63;;
10872;SDS011;34586;53.616;10.032;2023-11-18T00:50:34;8.97;;;6.83;;
10872;SDS011;34586;53.616;10.032;2023-11-18T00:53:00;7.27;;;6.60;;
10872;SDS011;34586;53.616;10.032;2023-11-18T00:55:26;8.10;;;7.03;;
10872;SDS011;34586;53.616;10.032;2023-11-18T00:57:51;6.83;;;6.23;;
10872;SDS011;34586;53.616;10.032;2023-11-18T01:00:18;7.37;;;6.40;;
10872;SDS011;34586;53.616;10.032;2023-11-18T01:02:51;8.03;;;7.03;;
10872;SDS011;34586;53.616;10.032;2023-11-18T01:05:19;7.10;;;6.40;;
10872;SDS011;34586;53.616;10.032;2023-11-18T01:07:45;7.43;;;6.73;;
10872;SDS011;34586;53.616;10.032;2023-11-18T01:10:11;7.33;;;6.30;;
10872;SDS011;34586;53.616;10.032;2023-11-18T01:12:38;7.00;;;6.30;;
10872;SDS011;34586;53.616;10.032;2023-11-18T01:15:10;7.03;;;6.37;;
10872;SDS011;34586;53.616;10.032;2023-11-18T01:17:37;7.00;;;6.40;;
10872;SDS011;34586;53.616;10.032;2023-11-18T01:20:03;6.90;;;6.30;;
10872;SDS011;34586;53.616;10.032;2023-11-18T01:22:34;8.17;;;6.90;;
10872;SDS011;34586;53.616;10.032;2023-11-18T01:25:00;7.40;;;6.70;;
10872;SDS011;34586;53.616;10.032;2023-11-18T01:27:26;7.13;;;6.43;;
10872;SDS011;34586;53.616;10.032;2023-11-18T01:29:52;6.33;;;5.83;;
10872;SDS011;34586;53.616;10.032;2023-11-18T01:32:18;8.43;;;6.93;;
10872;SDS011;34586;53.616;10.032;2023-11-18T01:34:44;7.63;;;6.83;;
10872;SDS011;34586;53.616;10.032;2023-11-18T01:37:15;7.20;;;6.50;;
10872;SDS011;34586;53.616;10.032;2023-11-18T01:39:41;7.33;;;6.60;;
10872;SDS011;34586;53.616;10.032;2023-11-18T01:42:06;7.10;;;6.40;;
10872;SDS011;34586;53.616;10.032;2023-11-18T01:44:32;6.63;;;6.03;;
10872;SDS011;34586;53.616;10.032;2023-11-18T01:47:00;6.20;;;5.60;;
10872;SDS011;34586;53.616;10.032;2023-11-18T01:49:28;7.83;;;7.03;;
10872;SDS011;34586;53.616;10.032;2023-11-18T01:51:54;6.50;;;5.90;;
10872;SDS011;34586;53.616;10.032;2023-11-18T01:54:21;9.10;;;6.43;;
10872;SDS011;34586;53.616;10.032;2023-11-18T01:56:48;7.20;;;6.50;;
10872;SDS011;34586;53.616;10.032;2023-11-18T01:59:14;8.63;;;6.40;;
10872;SDS011;34586;53.616;10.032;2023-11-18T02:01:46;7.17;;;6.53;;
10872;SDS011;34586;53.616;10.032;2023-11-18T02:04:14;7.67;;;6.87;;
10872;SDS011;34586;53.616;10.032;2023-11-18T02:06:41;7.80;;;7.03;;
10872;SDS011;34586;53.616;10.032;2023-11-18T02:09:07;8.20;;;7.00;;
10872;SDS011;34586;53.616;10.032;2023-11-18T02:11:37;7.97;;;6.63;;
10872;SDS011;34586;53.616;10.032;2023-11-18T02:14:07;9.00;;;7.23;;
10872;SDS011;34586;53.616;10.032;2023-11-18T02:16:37;7.87;;;7.07;;
10872;SDS011;34586;53.616;10.032;2023-11-18T02:19:07;7.80;;;6.93;;
10872;SDS011;34586;53.616;10.032;2023-11-18T02:21:49;8.67;;;7.50;;
10872;SDS011;34586;53.616;10.032;2023-11-18T02:24:29;8.97;;;7.40;;
10872;SDS011;34586;53.616;10.032;2023-11-18T02:26:58;7.83;;;7.03;;
10872;SDS011;34586;53.616;10.032;2023-11-18T02:29:26;8.27;;;7.33;;
10872;SDS011;34586;53.616;10.032;2023-11-18T02:31:55;8.10;;;7.30;;
10872;SDS011;34586;53.616;10.032;2023-11-18T02:34:33;8.33;;;7.43;;
10872;SDS011;34586;53.616;10.032;2023-11-18T02:37:03;7.93;;;7.13;;
10872;SDS011;34586;53.616;10.032;2023-11-18T02:39:42;9.93;;;7.40;;
10872;SDS011;34586;53.616;10.032;2023-11-18T02:42:09;8.00;;;7.20;;
10872;SDS011;34586;53.616;10.032;2023-11-18T02:44:38;8.13;;;7.33;;
10872;SDS011;34586;53.616;10.032;2023-11-18T02:47:04;8.97;;;7.90;;
10872;SDS011;34586;53.616;10.032;2023-11-18T02:49:30;7.80;;;7.00;;
10872;SDS011;34586;53.616;10.032;2023-11-18T02:51:56;8.13;;;7.33;;
10872;SDS011;34586;53.616;10.032;2023-11-18T02:54:22;8.03;;;7.13;;
10872;SDS011;34586;53.616;10.032;2023-11-18T02:56:48;10.40;;;8.03;;
10872;SDS011;34586;53.616;10.032;2023-11-18T02:59:15;8.47;;;7.50;;
10872;SDS011;34586;53.616;10.032;2023-11-18T03:01:41;8.43;;;7.53;;
10872;SDS011;34586;53.616;10.032;2023-11-18T03:04:06;7.63;;;6.83;;
10872;SDS011;34586;53.616;10.032;2023-11-18T03:06:33;9.23;;;7.13;;
10872;SDS011;34586;53.616;10.032;2023-11-18T03:09:00;8.70;;;7.20;;
10872;SDS011;34586;53.616;10.032;2023-11-18T03:11:26;8.03;;;7.23;;
10872;SDS011;34586;53.616;10.032;2023-11-18T03:13:55;7.47;;;6.40;;
10872;SDS011;34586;53.616;10.032;2023-11-18T03:16:21;7.37;;;6.67;;
10872;SDS011;34586;53.616;10.032;2023-11-18T03:18:49;10.27;;;7.33;;
10872;SDS011;34586;53.616;10.032;2023-11-18T03:21:15;8.23;;;7.33;;
10872;SDS011;34586;53.616;10.032;2023-11-18T03:23:41;9.53;;;7.03;;
10872;SDS011;34586;53.616;10.032;2023-11-18T03:26:07;8.77;;;7.33;;
10872;SDS011;34586;53.616;10.032;2023-11-18T03:28:33;9.13;;;7.40;;
10872;SDS011;34586;53.616;10.032;2023-11-18T03:30:59;7.40;;;6.70;;
10872;SDS011;34586;53.616;10.032;2023-11-18T03:33:24;7.23;;;6.53;;
10872;SDS011;34586;53.616;10.032;2023-11-18T03:35:50;7.50;;;6.77;;
10872;SDS011;34586;53.616;10.032;2023-11-18T03:38:16;7.80;;;7.00;;
10872;SDS011;34586;53.616;10.032;2023-11-18T03:40:42;7.40;;;6.53;;
10872;SDS011;34586;53.616;10.032;2023-11-18T03:43:10;7.13;;;6.43;;
10872;SDS011;34586;53.616;10.032;2023-11-18T03:45:39;8.93;;;7.30;;
10872;SDS011;34586;53.616;10.032;2023-11-18T03:48:05;8.90;;;7.13;;
10872;SDS011;34586;53.616;10.032;2023-11-18T03:50:32;8.17;;;7.37;;
10872;SDS011;34586;53.616;10.032;2023-11-18T03:52:58;8.27;;;6.67;;
10872;SDS011;34586;53.616;10.032;2023-11-18T03:55:24;8.00;;;6.53;;
10872;SDS011;34586;53.616;10.032;2023-11-18T03:57:51;7.93;;;7.13;;
10872;SDS011;34586;53.616;10.032;2023-11-18T04:00:17;7.23;;;6.30;;
10872;SDS011;34586;53.616;10.032;2023-11-18T04:02:44;8.07;;;7.27;;
10872;SDS011;34586;53.616;10.032;2023-11-18T04:05:11;7.33;;;6.57;;
10872;SDS011;34586;53.616;10.032;2023-11-18T04:07:37;7.93;;;7.00;;
10872;SDS011;34586;53.616;10.032;2023-11-18T04:10:02;6.93;;;6.30;;
10872;SDS011;34586;53.616;10.032;2023-11-18T04:12:31;8.03;;;7.23;;
10872;SDS011;34586;53.616;10.032;2023-11-18T04:14:57;7.20;;;6.50;;
10872;SDS011;34586;53.616;10.032;2023-11-18T04:17:23;6.97;;;6.27;;
10872;SDS011;34586;53.616;10.032;2023-11-18T04:19:52;7.37;;;6.40;;
10872;SDS011;34586;53.616;10.032;2023-11-18T04:22:20;6.53;;;5.90;;
10872;SDS011;34586;53.616;10.032;2023-11-18T04:24:47;7.50;;;6.80;;
10872;SDS011;34586;53.616;10.032;2023-11-18T04:27:12;7.10;;;6.40;;
10872;SDS011;34586;53.616;10.032;2023-11-18T04:29:38;7.63;;;6.43;;
10872;SDS011;34586;53.616;10.032;2023-11-18T04:32:05;8.07;;;7.27;;
10872;SDS011;34586;53.616;10.032;2023-11-18T04:34:35;7.83;;;7.03;;
10872;SDS011;34586;53.616;10.032;2023-11-18T04:37:01;9.57;;;7.70;;
10872;SDS011;34586;53.616;10.032;2023-11-18T04:39:27;8.23;;;6.97;;
10872;SDS011;34586;53.616;10.032;2023-11-18T04:41:55;7.43;;;6.73;;
10872;SDS011;34586;53.616;10.032;2023-11-18T04:44:21;7.23;;;6.53;;
10872;SDS011;34586;53.616;10.032;2023-11-18T04:46:47;8.37;;;7.53;;
10872;SDS011;34586;53.616;10.032;2023-11-18T04:49:13;7.40;;;6.67;;
10872;SDS011;34586;53.616;10.032;2023-11-18T04:51:38;8.97;;;7.47;;
10872;SDS011;34586;53.616;10.032;2023-11-18T04:54:04;8.57;;;6.87;;
10872;SDS011;34586;53.616;10.032;2023-11-18T04:56:32;8.03;;;7.30;;
10872;SDS011;34586;53.616;10.032;2023-11-18T04:59:00;8.77;;;6.40;;
10872;SDS011;34586;53.616;10.032;2023-11-18T05:01:27;7.90;;;7.20;;
10872;SDS011;34586;53.616;10.032;2023-11-18T05:03:53;8.57;;;7.67;;
10872;SDS011;34586;53.616;10.032;2023-11-18T05:06:19;7.80;;;6.57;;
10872;SDS011;34586;53.616;10.032;2023-11-18T05:08:45;8.37;;;7.43;;
10872;SDS011;34586;53.616;10.032;2023-11-18T05:11:11;9.43;;;7.73;;
10872;SDS011;34586;53.616;10.032;2023-11-18T05:13:38;7.70;;;7.00;;
10872;SDS011;34586;53.616;10.032;2023-11-18T05:16:05;9.63;;;7.53;;
10872;SDS011;34586;53.616;10.032;2023-11-18T05:18:31;7.37;;;6.67;;
10872;SDS011;34586;53.616;10.032;2023-11-18T05:21:00;9.27;;;6.80;;
10872;SDS011;34586;53.616;10.032;2023-11-18T05:23:28;7.63;;;6.80;;
10872;SDS011;34586;53.616;10.032;2023-11-18T05:25:54;7.83;;;7.03;;
10872;SDS011;34586;53.616;10.032;2023-11-18T05:28:21;7.47;;;6.63;;
10872;SDS011;34586;53.616;10.032;2023-11-18T05:30:47;7.80;;;7.10;;
10872;SDS011;34586;53.616;10.032;2023-11-18T05:33:12;9.37;;;7.63;;
10872;SDS011;34586;53.616;10.032;2023-11-18T05:35:42;7.80;;;7.00;;
10872;SDS011;34586;53.616;10.032;2023-11-18T05:38:14;9.30;;;7.20;;
10872;SDS011;34586;53.616;10.032;2023-11-18T05:40:43;8.93;;;7.00;;
10872;SDS011;34586;53.616;10.032;2023-11-18T05:43:19;7.57;;;6.77;;
10872;SDS011;34586;53.616;10.032;2023-11-18T05:45:46;8.27;;;7.37;;
10872;SDS011;34586;53.616;10.032;2023-11-18T05:48:31;7.90;;;6.57;;
10872;SDS011;34586;53.616;10.032;2023-11-18T05:50:57;7.30;;;6.60;;
10872;SDS011;34586;53.616;10.032;2023-11-18T05:53:22;7.97;;;7.23;;
10872;SDS011;34586;53.616;10.032;2023-11-18T05:55:48;9.23;;;8.10;;
10872;SDS011;34586;53.616;10.032;2023-11-18T05:58:14;8.20;;;7.40;;
10872;SDS011;34586;53.616;10.032;2023-11-18T06:00:40;8.73;;;7.50;;
10872;SDS011;34586;53.616;10.032;2023-11-18T06:03:06;8.10;;;7.30;;
10872;SDS011;34586;53.616;10.032;2023-11-18T06:05:31;7.90;;;6.97;;
10872;SDS011;34586;53.616;10.032;2023-11-18T06:07:59;7.77;;;6.97;;
10872;SDS011;34586;53.616;10.032;2023-11-18T06:10:25;8.00;;;6.77;;
10872;SDS011;34586;53.616;10.032;2023-11-18T06:12:51;8.30;;;7.50;;
10872;SDS011;34586;53.616;10.032;2023-11-18T06:15:16;9.33;;;7.90;;
10872;SDS011;34586;53.616;10.032;2023-11-18T06:17:43;9.57;;;8.30;;
10872;SDS011;34586;53.616;10.032;2023-11-18T06:20:09;9.43;;;8.30;;
10872;SDS011;34586;53.616;10.032;2023-11-18T06:22:35;15.27;;;8.60;;
10872;SDS011;34586;53.616;10.032;2023-11-18T06:25:01;9.33;;;8.33;;
10872;SDS011;34586;53.616;10.032;2023-11-18T06:27:27;10.13;;;9.13;;
10872;SDS011;34586;53.616;10.032;2023-11-18T06:29:53;10.63;;;8.63;;
10872;SDS011;34586;53.616;10.032;2023-11-18T06:32:19;11.63;;;9.40;;
10872;SDS011;34586;53.616;10.032;2023-11-18T06:34:45;11.63;;;9.70;;
10872;SDS011;34586;53.616;10.032;2023-11-18T06:37:11;11.03;;;8.83;;
10872;SDS011;34586;53.616;10.032;2023-11-18T06:39:40;10.40;;;9.07;;
10872;SDS011;34586;53.616;10.032;2023-11-18T06:42:09;12.40;;;9.43;;
10872;SDS011;34586;53.616;10.032;2023-11-18T06:44:36;10.53;;;9.20;;
10872;SDS011;34586;53.616;10.032;2023-11-18T06:47:02;10.20;;;9.10;;
10872;SDS011;34586;53.616;10.032;2023-11-18T06:49:30;11.17;;;9.53;;
10872;SDS011;34586;53.616;10.032;2023-11-18T06:51:59;10.23;;;8.67;;
10872;SDS011;34586;53.616;10.032;2023-11-18T06:54:29;12.23;;;9.40;;
10872;SDS011;34586;53.616;10.032;2023-11-18T06:56:55;13.50;;;9.77;;
10872;SDS011;34586;53.616;10.032;2023-11-18T06:59:21;10.63;;;9.37;;
10872;SDS011;34586;53.616;10.032;2023-11-18T07:01:46;12.77;;;9.97;;
10872;SDS011;34586;53.616;10.032;2023-11-18T07:04:12;11.90;;;9.50;;
10872;SDS011;34586;53.616;10.032;2023-11-18T07:06:39;11.97;;;10.17;;
10872;SDS011;34586;53.616;10.032;2023-11-18T07:09:05;12.50;;;9.77;;
10872;SDS011;34586;53.616;10.032;2023-11-18T07:11:42;12.20;;;10.03;;
10872;SDS011;34586;53.616;10.032;2023-11-18T07:14:09;13.43;;;9.87;;
10872;SDS011;34586;53.616;10.032;2023-11-18T07:16:35;12.60;;;9.93;;
10872;SDS011;34586;53.616;10.032;2023-11-18T07:19:06;14.17;;;10.80;;
10872;SDS011;34586;53.616;10.032;2023-11-18T07:21:32;14.70;;;10.40;;
10872;SDS011;34586;53.616;10.032;2023-11-18T07:23:58;11.30;;;10.10;;
10872;SDS011;34586;53.616;10.032;2023-11-18T07:26:24;12.60;;;10.00;;
10872;SDS011;34586;53.616;10.032;2023-11-18T07:28:50;13.03;;;10.00;;
10872;SDS011;34586;53.616;10.032;2023-11-18T07:31:16;11.77;;;8.93;;
10872;SDS011;34586;53.616;10.032;2023-11-18T07:33:43;12.53;;;9.00;;
10872;SDS011;34586;53.616;10.032;2023-11-18T07:36:14;12.17;;;9.90;;
10872;SDS011;34586;53.616;10.032;2023-11-18T07:38:44;11.47;;;9.50;;
10872;SDS011;34586;53.616;10.032;2023-11-18T07:41:10;11.00;;;9.17;;
10872;SDS011;34586;53.616;10.032;2023-11-18T07:43:48;12.03;;;9.87;;
10872;SDS011;34586;53.616;10.032;2023-11-18T07:46:19;13.80;;;10.00;;
10872;SDS011;34586;53.616;10.032;2023-11-18T07:48:47;12.90;;;10.07;;
10872;SDS011;34586;53.616;10.032;2023-11-18T07:51:14;13.03;;;9.93;;
10872;SDS011;34586;53.616;10.032;2023-11-18T07:53:40;12.27;;;9.60;;
10872;SDS011;34586;53.616;10.032;2023-11-18T07:56:06;13.73;;;10.23;;
10872;SDS011;34586;53.616;10.032;2023-11-18T07:58:35;16.33;;;11.90;;
10872;SDS011;34586;53.616;10.032;2023-11-18T08:01:02;14.87;;;12.47;;
10872;SDS011;34586;53.616;10.032;2023-11-18T08:03:32;16.43;;;13.03;;
10872;SDS011;34586;53.616;10.032;2023-11-18T08:05:58;15.47;;;11.57;;
10872;SDS011;34586;53.616;10.032;2023-11-18T08:08:24;14.53;;;10.63;;
10872;SDS011;34586;53.616;10.032;2023-11-18T08:10:50;13.60;;;10.73;;
10872;SDS011;34586;53.616;10.032;2023-11-18T08:13:16;13.93;;;11.37;;
10872;SDS011;34586;53.616;10.032;2023-11-18T08:15:42;16.47;;;10.93;;
10872;SDS011;34586;53.616;10.032;2023-11-18T08:18:10;11.47;;;9.73;;
10872;SDS011;34586;53.616;10.032;2023-11-18T08:20:36;13.70;;;10.17;;
10872;SDS011;34586;53.616;10.032;2023-11-18T08:23:02;10.57;;;8.80;;
10872;SDS011;34586;53.616;10.032;2023-11-18T08:25:29;11.87;;;9.10;;
10872;SDS011;34586;53.616;10.032;2023-11-18T08:27:58;11.03;;;8.70;;
10872;SDS011;34586;53.616;10.032;2023-11-18T08:30:25;11.43;;;9.30;;
10872;SDS011;34586;53.616;10.032;2023-11-18T08:32:51;12.53;;;9.00;;
10872;SDS011;34586;53.616;10.032;2023-11-18T08:35:17;11.57;;;8.97;;
10872;SDS011;34586;53.616;10.032;2023-11-18T08:37:43;11.03;;;8.43;;
10872;SDS011;34586;53.616;10.032;2023-11-18T08:40:11;12.87;;;8.60;;
10872;SDS011;34586;53.616;10.032;2023-11-18T08:42:47;10.73;;;8.47;;
10872;SDS011;34586;53.616;10.032;2023-11-18T08:45:18;10.13;;;8.10;;
10872;SDS011;34586;53.616;10.032;2023-11-18T08:47:47;10.27;;;7.47;;
10872;SDS011;34586;53.616;10.032;2023-11-18T08:50:16;8.70;;;7.80;;
10872;SDS011;34586;53.616;10.032;2023-11-18T08:52:45;8.93;;;7.40;;
10872;SDS011;34586;53.616;10.032;2023-11-18T08:55:14;9.33;;;7.03;;
10872;SDS011;34586;53.616;10.032;2023-11-18T08:57:49;9.30;;;7.30;;
10872;SDS011;34586;53.616;10.032;2023-11-18T09:00:27;9.43;;;7.50;;
10872;SDS011;34586;53.616;10.032;2023-11-18T09:03:12;9.33;;;7.33;;
10872;SDS011;34586;53.616;10.032;2023-11-18T09:05:59;8.70;;;7.00;;
10872;SDS011;34586;53.616;10.032;2023-11-18T09:08:32;8.10;;;6.47;;
10872;SDS011;34586;53.616;10.032;2023-11-18T09:11:08;7.03;;;5.87;;
10872;SDS011;34586;53.616;10.032;2023-11-18T09:13:48;7.93;;;6.10;;
10872;SDS011;34586;53.616;10.032;2023-11-18T09:16:19;6.73;;;5.97;;
10872;SDS011;34586;53.616;10.032;2023-11-18T09:18:54;6.67;;;5.97;;
10872;SDS011;34586;53.616;10.032;2023-11-18T09:21:20;7.30;;;6.00;;
10872;SDS011;34586;53.616;10.032;2023-11-18T09:23:50;6.53;;;5.93;;
10872;SDS011;34586;53.616;10.032;2023-11-18T09:26:16;6.77;;;5.87;;
10872;SDS011;34586;53.616;10.032;2023-11-18T09:28:42;14.00;;;12.53;;
10872;SDS011;34586;53.616;10.032;2023-11-18T09:31:09;7.90;;;6.97;;
10872;SDS011;34586;53.616;10.032;2023-11-18T09:33:38;8.50;;;7.13;;
10872;SDS011;34586;53.616;10.032;2023-11-18T09:36:09;7.73;;;6.30;;
10872;SDS011;34586;53.616;10.032;2023-11-18T09:38:40;7.30;;;5.77;;
10872;SDS011;34586;53.616;10.032;2023-11-18T09:41:06;6.37;;;5.73;;
10872;SDS011;34586;53.616;10.032;2023-11-18T09:43:39;6.73;;;5.30;;
10872;SDS011;34586;53.616;10.032;2023-11-18T09:46:10;5.77;;;5.17;;
10872;SDS011;34586;53.616;10.032;2023-11-18T09:48:44;5.83;;;5.23;;
10872;SDS011;34586;53.616;10.032;2023-11-18T09:51:12;5.20;;;4.67;;
10872;SDS011;34586;53.616;10.032;2023-11-18T09:53:46;4.30;;;3.90;;
10872;SDS011;34586;53.616;10.032;2023-11-18T09:56:18;4.77;;;4.37;;
10872;SDS011;34586;53.616;10.032;2023-11-18T09:58:54;6.27;;;4.60;;
10872;SDS011;34586;53.616;10.032;2023-11-18T10:01:30;4.60;;;4.23;;
10872;SDS011;34586;53.616;10.032;2023-11-18T10:04:02;4.43;;;4.03;;
10872;SDS011;34586;53.616;10.032;2023-11-18T10:06:31;4.50;;;3.87;;
10872;SDS011;34586;53.616;10.032;2023-11-18T10:08:59;3.67;;;3.37;;
10872;SDS011;34586;53.616;10.032;2023-11-18T10:11:40;4.73;;;3.63;;
10872;SDS011;34586;53.616;10.032;2023-11-18T10:14:06;3.90;;;3.50;;
10872;SDS011;34586;53.616;10.032;2023-11-18T10:16:33;3.87;;;3.37;;
10872;SDS011;34586;53.616;10.032;2023-11-18T10:18:59;2.80;;;2.60;;
10872;SDS011;34586;53.616;10.032;2023-11-18T10:21:36;3.27;;;2.97;;
10872;SDS011;34586;53.616;10.032;2023-11-18T10:24:05;3.00;;;2.80;;
10872;SDS011;34586;53.616;10.032;2023-11-18T10:26:44;3.73;;;2.97;;
10872;SDS011;34586;53.616;10.032;2023-11-18T10:29:21;3.87;;;3.20;;
10872;SDS011;34586;53.616;10.032;2023-11-18T10:31:48;3.90;;;3.50;;
10872;SDS011;34586;53.616;10.032;2023-11-18T10:34:14;3.23;;;3.00;;
10872;SDS011;34586;53.616;10.032;2023-11-18T10:36:58;3.67;;;3.13;;
10872;SDS011;34586;53.616;10.032;2023-11-18T10:39:31;2.53;;;2.33;;
10872;SDS011;34586;53.616;10.032;2023-11-18T10:42:00;3.57;;;2.43;;
10872;SDS011;34586;53.616;10.032;2023-11-18T10:44:26;2.53;;;2.33;;
10872;SDS011;34586;53.616;10.032;2023-11-18T10:46:54;2.53;;;2.33;;
10872;SDS011;34586;53.616;10.032;2023-11-18T10:49:23;3.70;;;2.80;;
10872;SDS011;34586;53.616;10.032;2023-11-18T10:51:52;3.00;;;2.80;;
10872;SDS011;34586;53.616;10.032;2023-11-18T10:54:18;2.10;;;1.90;;
10872;SDS011;34586;53.616;10.032;2023-11-18T10:56:48;2.70;;;2.50;;
10872;SDS011;34586;53.616;10.032;2023-11-18T10:59:14;4.67;;;2.63;;
10872;SDS011;34586;53.616;10.032;2023-11-18T11:01:43;2.33;;;2.23;;
10872;SDS011;34586;53.616;10.032;2023-11-18T11:04:12;2.97;;;2.70;;
10872;SDS011;34586;53.616;10.032;2023-11-18T11:06:42;2.07;;;1.90;;
10872;SDS011;34586;53.616;10.032;2023-11-18T11:09:17;2.40;;;2.20;;
10872;SDS011;34586;53.616;10.032;2023-11-18T11:11:57;2.00;;;1.90;;
10872;SDS011;34586;53.616;10.032;2023-11-18T11:14:33;2.10;;;1.90;;
10872;SDS011;34586;53.616;10.032;2023-11-18T11:17:10;2.30;;;2.10;;
10872;SDS011;34586;53.616;10.032;2023-11-18T11:19:50;1.90;;;1.80;;
10872;SDS011;34586;53.616;10.032;2023-11-18T11:22:22;2.23;;;2.00;;
10872;SDS011;34586;53.616;10.032;2023-11-18T11:25:07;2.50;;;2.20;;
10872;SDS011;34586;53.616;10.032;2023-11-18T11:27:50;2.00;;;1.90;;
10872;SDS011;34586;53.616;10.032;2023-11-18T11:30:29;2.17;;;1.97;;
10872;SDS011;34586;53.616;10.032;2023-11-18T11:35:30;1.57;;;1.47;;
10872;SDS011;34586;53.616;10.032;2023-11-18T11:37:58;1.60;;;1.50;;
10872;SDS011;34586;53.616;10.032;2023-11-18T11:40:35;1.83;;;1.73;;
10872;SDS011;34586;53.616;10.032;2023-11-18T11:43:02;2.00;;;1.87;;
10872;SDS011;34586;53.616;10.032;2023-11-18T11:45:34;2.67;;;1.43;;
10872;SDS011;34586;53.616;10.032;2023-11-18T11:48:01;1.53;;;1.43;;
10872;SDS011;34586;53.616;10.032;2023-11-18T11:51:02;1.83;;;1.73;;
10872;SDS011;34586;53.616;10.032;2023-11-18T11:53:40;2.17;;;1.83;;
10872;SDS011;34586;53.616;10.032;2023-11-18T11:56:12;2.10;;;2.00;;
10872;SDS011;34586;53.616;10.032;2023-11-18T11:58:46;2.40;;;2.20;;
10872;SDS011;34586;53.616;10.032;2023-11-18T12:01:26;2.50;;;2.30;;
10872;SDS011;34586;53.616;10.032;2023-11-18T12:04:02;2.60;;;2.40;;
10872;SDS011;34586;53.616;10.032;2023-11-18T12:06:45;2.90;;;2.70;;
10872;SDS011;34586;53.616;10.032;2023-11-18T12:09:18;3.20;;;2.90;;
10872;SDS011;34586;53.616;10.032;2023-11-18T12:11:47;3.57;;;3.27;;
10872;SDS011;34586;53.616;10.032;2023-11-18T12:14:16;3.93;;;3.50;;
10872;SDS011;34586;53.616;10.032;2023-11-18T12:17:04;4.03;;;3.00;;
10872;SDS011;34586;53.616;10.032;2023-11-18T12:19:38;4.33;;;3.33;;
10872;SDS011;34586;53.616;10.032;2023-11-18T12:22:11;3.87;;;3.47;;
10872;SDS011;34586;53.616;10.032;2023-11-18T12:24:43;4.17;;;3.87;;
10872;SDS011;34586;53.616;10.032;2023-11-18T12:35:40;5.13;;;3.70;;
10872;SDS011;34586;53.616;10.032;2023-11-18T12:41:05;3.97;;;3.57;;
10872;SDS011;34586;53.616;10.032;2023-11-18T12:49:04;3.47;;;3.23;;
10872;SDS011;34586;53.616;10.032;2023-11-18T12:51:30;3.00;;;2.70;;
10872;SDS011;34586;53.616;10.032;2023-11-18T12:53:59;3.00;;;2.80;;
10872;SDS011;34586;53.616;10.032;2023-11-18T12:56:27;3.23;;;2.67;;
10872;SDS011;34586;53.616;10.032;2023-11-18T12:58:55;3.10;;;2.90;;
10872;SDS011;34586;53.616;10.032;2023-11-18T13:01:21;3.00;;;2.80;;
10872;SDS011;34586;53.616;10.032;2023-11-18T13:03:47;3.20;;;2.90;;
10872;SDS011;34586;53.616;10.032;2023-11-18T13:06:13;2.93;;;2.70;;
10872;SDS011;34586;53.616;10.032;2023-11-18T13:08:39;2.90;;;2.70;;
10872;SDS011;34586;53.616;10.032;2023-11-18T13:11:05;3.53;;;3.23;;
10872;SDS011;34586;53.616;10.032;2023-11-18T13:13:37;4.10;;;3.70;;
10872;SDS011;34586;53.616;10.032;2023-11-18T13:16:05;3.80;;;3.50;;
10872;SDS011;34586;53.616;10.032;2023-11-18T13:18:46;3.40;;;3.20;;
10872;SDS011;34586;53.616;10.032;2023-11-18T13:21:16;3.30;;;3.10;;
10872;SDS011;34586;53.616;10.032;2023-11-18T13:23:46;3.80;;;3.50;;
10872;SDS011;34586;53.616;10.032;2023-11-18T13:26:13;4.33;;;3.50;;
10872;SDS011;34586;53.616;10.032;2023-11-18T13:28:40;3.77;;;3.47;;
10872;SDS011;34586;53.616;10.032;2023-11-18T13:31:08;3.67;;;3.40;;
10872;SDS011;34586;53.616;10.032;2023-11-18T13:33:37;4.83;;;3.40;;
10872;SDS011;34586;53.616;10.032;2023-11-18T13:36:07;4.37;;;3.03;;
10872;SDS011;34586;53.616;10.032;2023-11-18T13:38:35;3.50;;;3.20;;
10872;SDS011;34586;53.616;10.032;2023-11-18T13:41:02;4.13;;;3.73;;
10872;SDS011;34586;53.616;10.032;2023-11-18T13:43:40;3.83;;;3.53;;
10872;SDS011;34586;53.616;10.032;2023-11-18T13:46:09;3.80;;;3.50;;
10872;SDS011;34586;53.616;10.032;2023-11-18T13:48:37;5.00;;;3.60;;
10872;SDS011;34586;53.616;10.032;2023-11-18T13:51:06;3.70;;;3.40;;
10872;SDS011;34586;53.616;10.032;2023-11-18T13:53:38;4.87;;;3.60;;
10872;SDS011;34586;53.616;10.032;2023-11-18T13:56:06;3.60;;;3.30;;
10872;SDS011;34586;53.616;10.032;2023-11-18T13:58:43;3.63;;;3.33;;
10872;SDS011;34586;53.616;10.032;2023-11-18T14:01:10;3.83;;;3.53;;
10872;SDS011;34586;53.616;10.032;2023-11-18T14:03:37;4.20;;;3.80;;
10872;SDS011;34586;53.616;10.032;2023-11-18T14:06:05;4.20;;;3.80;;
10872;SDS011;34586;53.616;10.032;2023-11-18T14:08:31;3.93;;;3.63;;
10872;SDS011;34586;53.616;10.032;2023-11-18T14:10:59;3.83;;;3.40;;
10872;SDS011;34586;53.616;10.032;2023-11-18T14:13:25;4.03;;;3.63;;
10872;SDS011;34586;53.616;10.032;2023-11-18T14:15:55;3.63;;;3.33;;
10872;SDS011;34586;53.616;10.032;2023-11-18T14:18:24;4.00;;;3.50;;
10872;SDS011;34586;53.616;10.032;2023-11-18T14:20:51;4.80;;;3.50;;
10872;SDS011;34586;53.616;10.032;2023-11-18T14:23:16;4.40;;;3.33;;
10872;SDS011;34586;53.616;10.032;2023-11-18T14:25:43;5.23;;;4.10;;
10872;SDS011;34586;53.616;10.032;2023-11-18T14:28:12;3.80;;;3.23;;
10872;SDS011;34586;53.616;10.032;2023-11-18T14:30:38;4.50;;;4.10;;
10872;SDS011;34586;53.616;10.032;2023-11-18T14:33:05;4.20;;;3.90;;
10872;SDS011;34586;53.616;10.032;2023-11-18T14:35:32;4.10;;;3.70;;
10872;SDS011;34586;53.616;10.032;2023-11-18T14:37:58;5.57;;;3.50;;
10872;SDS011;34586;53.616;10.032;2023-11-18T14:40:27;4.93;;;3.53;;
10872;SDS011;34586;53.616;10.032;2023-11-18T14:42:53;4.10;;;3.70;;
10872;SDS011;34586;53.616;10.032;2023-11-18T14:45:19;4.13;;;3.77;;
10872;SDS011;34586;53.616;10.032;2023-11-18T14:47:45;3.80;;;3.23;;
10872;SDS011;34586;53.616;10.032;2023-11-18T14:50:12;3.67;;;3.27;;
10872;SDS011;34586;53.616;10.032;2023-11-18T14:52:45;4.47;;;3.60;;
10872;SDS011;34586;53.616;10.032;2023-11-18T14:55:17;3.20;;;2.90;;
10872;SDS011;34586;53.616;10.032;2023-11-18T14:57:46;3.43;;;3.13;;
10872;SDS011;34586;53.616;10.032;2023-11-18T15:00:12;3.17;;;2.90;;